createdAt,value
2023-01-19T00:01:47.010Z,58.53
2023-01-19T00:04:16.237Z,64.07
2023-01-19T00:06:45.255Z,63.53
2023-01-19T00:09:14.334Z,53.78
2023-01-19T00:11:43.367Z,59.25
2023-01-19T00:14:13.972Z,61.80
2023-01-19T00:16:43.356Z,58.05
2023-01-19T00:19:12.363Z,54.70
2023-01-19T00:21:41.583Z,57.03
2023-01-19T00:24:14.017Z,57.67
2023-01-19T00:26:43.388Z,64.82
2023-01-19T00:29:15.781Z,63.47
2023-01-19T00:31:45.275Z,64.40
2023-01-19T00:34:14.514Z,60.50
2023-01-19T00:36:43.933Z,55.92
2023-01-19T00:39:13.009Z,43.95
2023-01-19T00:42:04.517Z,55.13
2023-01-19T00:44:35.439Z,62.67
2023-01-19T00:47:05.990Z,58.45
2023-01-19T00:49:35.310Z,60.08
2023-01-19T00:52:04.271Z,57.15
2023-01-19T00:54:33.280Z,55.80
2023-01-19T00:57:03.678Z,53.53
2023-01-19T00:59:33.207Z,53.30
2023-01-19T01:02:03.684Z,44.90
2023-01-19T01:04:33.201Z,52.17
2023-01-19T01:07:02.317Z,50.40
2023-01-19T01:09:32.032Z,47.53
2023-01-19T01:12:01.378Z,41.35
2023-01-19T01:14:30.782Z,56.55
2023-01-19T01:17:00.912Z,54.70
2023-01-19T01:19:31.853Z,55.28
2023-01-19T01:22:01.869Z,50.50
2023-01-19T01:24:31.011Z,53.88
2023-01-19T01:27:00.410Z,54.33
2023-01-19T01:29:29.413Z,53.17
2023-01-19T01:31:58.685Z,56.17
2023-01-19T01:34:28.001Z,64.95
2023-01-19T01:36:58.603Z,53.20
2023-01-19T01:39:28.124Z,52.03
2023-01-19T01:41:57.607Z,40.70
2023-01-19T01:44:53.719Z,37.63
2023-01-19T01:47:34.602Z,44.45
2023-01-19T01:50:10.850Z,55.70
2023-01-19T01:52:44.633Z,55.95
2023-01-19T01:55:36.829Z,55.92
2023-01-19T01:58:07.392Z,56.53
2023-01-19T02:00:50.698Z,53.22
2023-01-19T02:03:20.343Z,47.88
2023-01-19T02:05:50.269Z,48.30
2023-01-19T02:08:43.884Z,55.15
2023-01-19T02:11:30.409Z,53.47
2023-01-19T02:14:00.264Z,57.17
2023-01-19T02:16:30.340Z,55.08
2023-01-19T02:19:01.309Z,59.63
2023-01-19T02:21:38.083Z,55.47
2023-01-19T02:24:09.956Z,50.80
2023-01-19T02:26:42.454Z,57.03
2023-01-19T02:29:13.779Z,46.38
2023-01-19T02:31:43.668Z,50.45
2023-01-19T02:34:15.609Z,48.85
2023-01-19T02:36:50.586Z,52.08
2023-01-19T02:39:24.532Z,47.13
2023-01-19T02:41:59.274Z,51.08
2023-01-19T02:44:29.299Z,52.30
2023-01-19T02:46:59.094Z,51.47
2023-01-19T02:49:30.435Z,47.00
2023-01-19T02:52:04.349Z,47.53
2023-01-19T02:54:48.536Z,41.17
2023-01-19T02:57:49.160Z,42.80
2023-01-19T03:00:34.206Z,47.53
2023-01-19T03:03:16.988Z,39.28
2023-01-19T03:05:57.285Z,40.72
2023-01-19T03:08:44.173Z,43.30
2023-01-19T03:11:16.334Z,42.17
2023-01-19T03:13:51.146Z,43.40
2023-01-19T03:16:23.276Z,40.35
2023-01-19T03:18:57.439Z,41.70
2023-01-19T03:21:29.550Z,32.38
2023-01-19T03:24:02.517Z,24.10
2023-01-19T03:26:39.096Z,25.42
2023-01-19T03:29:10.167Z,31.15
2023-01-19T03:31:42.303Z,34.05
2023-01-19T03:34:14.904Z,33.85
2023-01-19T03:36:47.392Z,46.22
2023-01-19T03:39:20.740Z,40.28
2023-01-19T03:41:56.517Z,43.63
2023-01-19T03:44:28.507Z,45.17
2023-01-19T03:47:00.099Z,43.67
2023-01-19T03:49:32.047Z,39.88
2023-01-19T03:52:01.701Z,45.20
2023-01-19T03:54:31.365Z,44.53
2023-01-19T03:57:01.866Z,34.83
2023-01-19T03:59:31.308Z,49.17
2023-01-19T04:02:00.546Z,31.08
2023-01-19T04:04:29.913Z,44.42
2023-01-19T04:06:59.511Z,40.78
2023-01-19T04:09:29.659Z,43.95
2023-01-19T04:11:58.789Z,40.58
2023-01-19T04:14:30.675Z,39.65
2023-01-19T04:16:59.958Z,37.35
2023-01-19T04:19:29.035Z,40.85
2023-01-19T04:21:58.143Z,39.50
2023-01-19T04:24:27.982Z,37.00
2023-01-19T04:26:57.578Z,37.65
2023-01-19T04:29:26.626Z,40.00
2023-01-19T04:31:58.063Z,41.30
2023-01-19T04:34:27.196Z,39.10
2023-01-19T04:36:57.529Z,33.30
2023-01-19T04:41:57.629Z,41.53
2023-01-19T04:44:27.828Z,46.60
2023-01-19T04:46:58.850Z,53.15
2023-01-19T04:49:27.890Z,36.40
2023-01-19T04:51:57.035Z,49.90
2023-01-19T04:54:27.964Z,58.40
2023-01-19T04:56:57.415Z,55.90
2023-01-19T04:59:26.515Z,48.97
2023-01-19T05:01:56.734Z,47.05
2023-01-19T05:06:56.676Z,42.45
2023-01-19T05:09:26.280Z,30.45
2023-01-19T05:11:55.244Z,32.55
2023-01-19T05:14:24.610Z,26.17
2023-01-19T05:16:53.925Z,48.53
2023-01-19T05:19:23.438Z,39.60
2023-01-19T05:21:54.910Z,26.00
2023-01-19T05:24:24.353Z,32.50
2023-01-19T05:26:54.960Z,21.70
2023-01-19T05:29:24.463Z,24.45
2023-01-19T05:31:53.926Z,14.37
2023-01-19T05:34:23.495Z,11.23
2023-01-19T05:36:54.723Z,10.83
2023-01-19T05:39:23.830Z,11.30
2023-01-19T05:41:52.903Z,11.57
2023-01-19T05:44:22.421Z,12.77
2023-01-19T05:46:51.905Z,10.38
2023-01-19T05:49:21.009Z,9.23
2023-01-19T05:51:49.906Z,9.50
2023-01-19T05:54:20.656Z,11.77
2023-01-19T05:56:50.027Z,11.27
2023-01-19T05:59:24.520Z,10.85
2023-01-19T06:01:55.129Z,10.45
2023-01-19T06:04:25.775Z,11.02
2023-01-19T06:06:54.784Z,13.63
2023-01-19T06:09:25.456Z,11.43
2023-01-19T06:11:56.963Z,12.77
2023-01-19T06:14:26.669Z,9.85
2023-01-19T06:16:56.268Z,11.60
2023-01-19T06:19:25.901Z,17.48
2023-01-19T06:21:55.158Z,10.35
2023-01-19T06:24:26.377Z,12.32
2023-01-19T06:26:55.776Z,11.88
2023-01-19T06:29:26.083Z,12.80
2023-01-19T06:31:56.783Z,14.73
2023-01-19T06:34:28.996Z,11.75
2023-01-19T06:36:58.923Z,10.82
2023-01-19T06:39:30.287Z,12.43
2023-01-19T06:41:59.883Z,13.43
2023-01-19T06:44:29.548Z,13.77
2023-01-19T06:47:15.852Z,10.77
2023-01-19T06:49:45.299Z,12.93
2023-01-19T06:52:17.220Z,14.00
2023-01-19T06:54:48.434Z,15.75
2023-01-19T06:57:19.167Z,10.57
2023-01-19T06:59:49.595Z,10.98
2023-01-19T07:04:57.135Z,12.00
2023-01-19T07:07:26.369Z,10.48
2023-01-19T07:09:57.234Z,9.95
2023-01-19T07:12:26.577Z,11.13
2023-01-19T07:14:55.859Z,10.15
2023-01-19T07:17:24.994Z,10.07
2023-01-19T07:19:54.838Z,8.73
2023-01-19T07:22:24.306Z,12.07
2023-01-19T07:24:53.624Z,9.20
2023-01-19T07:27:24.479Z,10.98
2023-01-19T07:29:53.657Z,9.15
2023-01-19T07:32:23.767Z,10.32
2023-01-19T07:34:53.078Z,8.25
2023-01-19T07:37:22.891Z,8.88
2023-01-19T07:39:52.047Z,9.00
2023-01-19T07:42:21.399Z,9.82
2023-01-19T07:44:52.036Z,10.10
2023-01-19T07:47:21.764Z,14.07
2023-01-19T07:49:51.049Z,9.60
2023-01-19T07:52:20.369Z,11.57
2023-01-19T07:54:51.209Z,7.95
2023-01-19T07:57:20.868Z,9.50
2023-01-19T07:59:52.011Z,8.57
2023-01-19T08:02:21.730Z,11.50
2023-01-19T08:04:51.075Z,10.05
2023-01-19T08:07:20.822Z,9.88
2023-01-19T08:09:50.597Z,9.15
2023-01-19T08:12:20.202Z,13.70
2023-01-19T08:14:49.174Z,10.80
2023-01-19T08:17:20.279Z,11.55
2023-01-19T08:19:49.556Z,11.70
2023-01-19T08:22:19.268Z,13.43
2023-01-19T08:24:50.354Z,12.02
2023-01-19T08:27:20.071Z,13.60
2023-01-19T08:29:49.105Z,11.27
2023-01-19T08:32:20.422Z,14.35
2023-01-19T08:34:49.964Z,12.57
2023-01-19T08:37:19.171Z,31.87
2023-01-19T08:39:49.095Z,13.77
2023-01-19T08:42:18.862Z,19.17
2023-01-19T08:44:57.487Z,18.25
2023-01-19T08:47:29.023Z,12.43
2023-01-19T08:49:58.433Z,11.43
2023-01-19T08:52:29.691Z,13.65
2023-01-19T08:54:58.968Z,11.65
2023-01-19T08:57:29.508Z,13.20
2023-01-19T08:59:58.856Z,13.15
2023-01-19T09:02:30.527Z,12.80
2023-01-19T09:05:00.502Z,9.73
2023-01-19T09:07:32.441Z,10.55
2023-01-19T09:10:03.073Z,10.38
2023-01-19T09:12:32.658Z,13.43
2023-01-19T09:15:01.845Z,9.45
2023-01-19T09:17:32.306Z,9.65
2023-01-19T09:22:30.927Z,10.23
2023-01-19T09:25:00.652Z,11.88
2023-01-19T09:27:29.893Z,9.55
2023-01-19T09:29:59.010Z,8.38
2023-01-19T09:32:28.441Z,10.43
2023-01-19T09:34:59.443Z,12.18
2023-01-19T09:37:28.649Z,10.48
2023-01-19T09:39:57.887Z,11.90
2023-01-19T09:42:44.012Z,14.20
2023-01-19T09:45:20.388Z,9.68
2023-01-19T09:47:50.968Z,11.18
2023-01-19T09:50:28.287Z,11.60
2023-01-19T09:53:02.553Z,11.48
2023-01-19T09:55:32.884Z,10.05
2023-01-19T09:58:02.829Z,10.55
2023-01-19T10:00:34.101Z,11.80
2023-01-19T10:03:14.159Z,9.07
2023-01-19T10:05:50.756Z,8.27
2023-01-19T10:08:25.153Z,9.70
2023-01-19T10:10:57.049Z,8.75
2023-01-19T10:13:39.677Z,9.90
2023-01-19T10:16:25.195Z,20.05
2023-01-19T10:18:59.191Z,11.18
2023-01-19T10:21:33.791Z,9.93
2023-01-19T10:24:07.886Z,9.05
2023-01-19T10:26:42.423Z,8.43
2023-01-19T10:29:20.321Z,7.35
2023-01-19T10:31:51.050Z,5.90
2023-01-19T10:34:23.565Z,7.97
2023-01-19T10:37:00.678Z,17.17
2023-01-19T10:39:30.566Z,8.75
2023-01-19T10:42:02.155Z,8.73
2023-01-19T10:44:37.985Z,9.52
2023-01-19T10:47:08.625Z,7.57
2023-01-19T10:49:40.793Z,8.63
2023-01-19T10:52:23.787Z,7.57
2023-01-19T10:54:53.000Z,7.47
2023-01-19T10:57:29.968Z,7.53
2023-01-19T10:59:59.963Z,8.80
2023-01-19T11:02:31.786Z,8.98
2023-01-19T11:05:02.564Z,8.73
2023-01-19T11:07:35.402Z,8.02
2023-01-19T11:10:22.302Z,8.98
2023-01-19T11:13:03.222Z,8.02
2023-01-19T11:15:35.579Z,10.05
2023-01-19T11:18:07.211Z,8.80
2023-01-19T11:20:47.937Z,10.07
2023-01-19T11:23:27.721Z,10.25
2023-01-19T11:25:59.699Z,9.63
2023-01-19T11:28:33.291Z,9.73
2023-01-19T11:31:04.553Z,9.65
2023-01-19T11:33:38.551Z,10.90
2023-01-19T11:36:16.038Z,11.32
2023-01-19T11:38:51.019Z,11.95
2023-01-19T11:41:23.337Z,10.93
2023-01-19T11:43:57.128Z,8.88
2023-01-19T11:46:30.694Z,10.55
2023-01-19T11:49:04.603Z,13.23
2023-01-19T11:51:40.492Z,8.38
2023-01-19T11:54:21.263Z,10.35
2023-01-19T11:56:52.852Z,12.55
2023-01-19T11:59:24.837Z,13.25
2023-01-19T12:01:58.394Z,11.25
2023-01-19T12:04:31.684Z,10.70
2023-01-19T12:07:07.281Z,12.45
2023-01-19T12:09:43.545Z,14.45
2023-01-19T12:12:23.363Z,15.55
2023-01-19T12:14:57.232Z,9.63
2023-01-19T12:17:28.704Z,11.15
2023-01-19T12:20:05.170Z,11.70
2023-01-19T12:22:42.810Z,9.95
2023-01-19T12:25:22.412Z,9.20
2023-01-19T12:27:53.181Z,9.63
2023-01-19T12:30:26.391Z,10.60
2023-01-19T12:33:23.740Z,9.52
2023-01-19T12:35:59.911Z,8.40
2023-01-19T12:38:44.397Z,10.02
2023-01-19T12:41:25.486Z,12.27
2023-01-19T12:44:19.577Z,9.52
2023-01-19T12:46:52.032Z,15.88
2023-01-19T12:49:29.480Z,12.98
2023-01-19T12:52:16.360Z,9.45
2023-01-19T12:54:55.008Z,12.85
2023-01-19T12:57:32.586Z,8.77
2023-01-19T13:00:04.167Z,10.93
2023-01-19T13:02:44.666Z,19.77
2023-01-19T13:05:24.661Z,18.80
2023-01-19T13:08:30.384Z,23.95
2023-01-19T13:11:22.492Z,22.45
2023-01-19T13:14:30.900Z,17.73
2023-01-19T13:17:26.536Z,17.77
2023-01-19T13:20:29.635Z,17.80
2023-01-19T13:23:22.233Z,14.40
2023-01-19T13:25:55.092Z,13.10
2023-01-19T13:28:36.967Z,12.20
2023-01-19T13:31:07.593Z,12.00
2023-01-19T13:33:48.150Z,10.13
2023-01-19T13:36:23.159Z,11.32
2023-01-19T13:38:54.577Z,10.80
2023-01-19T13:41:25.612Z,10.05
2023-01-19T13:44:01.446Z,8.80
2023-01-19T13:46:33.999Z,13.50
2023-01-19T13:49:16.239Z,11.20
2023-01-19T13:51:45.705Z,8.45
2023-01-19T13:54:18.332Z,8.07
2023-01-19T13:56:51.812Z,10.35
2023-01-19T13:59:21.568Z,11.40
2023-01-19T14:01:51.566Z,11.10
2023-01-19T14:04:31.749Z,15.20
2023-01-19T14:07:04.644Z,10.75
2023-01-19T14:09:34.112Z,12.02
2023-01-19T14:12:12.978Z,16.23
2023-01-19T14:14:43.362Z,11.38
2023-01-19T14:20:05.274Z,11.45
2023-01-19T14:22:51.302Z,13.93
2023-01-19T14:25:37.417Z,13.70
2023-01-19T14:28:36.835Z,14.48
2023-01-19T14:31:23.962Z,12.63
2023-01-19T14:33:55.688Z,10.25
2023-01-19T14:36:40.465Z,15.73
2023-01-19T14:39:21.240Z,10.75
2023-01-19T14:41:54.787Z,11.20
2023-01-19T14:44:31.256Z,13.38
2023-01-19T14:47:02.861Z,12.15
2023-01-19T14:49:36.146Z,14.85
2023-01-19T14:52:21.551Z,18.25
2023-01-19T14:54:51.810Z,20.88
2023-01-19T14:59:54.480Z,19.05
2023-01-19T15:02:26.970Z,19.20
2023-01-19T15:04:58.372Z,17.85
2023-01-19T15:07:46.024Z,22.77
2023-01-19T15:10:23.738Z,12.90
2023-01-19T15:13:04.495Z,15.75
2023-01-19T15:15:37.149Z,15.35
2023-01-19T15:18:12.697Z,16.95
2023-01-19T15:20:42.576Z,17.63
2023-01-19T15:23:15.196Z,17.42
2023-01-19T15:25:46.424Z,12.07
2023-01-19T15:28:19.728Z,14.95
2023-01-19T15:30:49.603Z,12.32
2023-01-19T15:33:22.456Z,17.35
2023-01-19T15:35:53.497Z,17.10
2023-01-19T15:38:28.108Z,16.08
2023-01-19T15:41:00.892Z,15.93
2023-01-19T15:43:30.661Z,17.13
2023-01-19T15:46:03.356Z,12.57
2023-01-19T15:48:33.833Z,13.50
2023-01-19T15:51:04.375Z,13.85
2023-01-19T15:53:35.775Z,15.85
2023-01-19T15:56:06.862Z,16.85
2023-01-19T15:58:37.015Z,17.88
2023-01-19T16:01:08.195Z,16.98
2023-01-19T16:03:39.276Z,15.18
2023-01-19T16:06:10.888Z,29.55
2023-01-19T16:08:42.234Z,32.47
2023-01-19T16:11:15.285Z,23.80
2023-01-19T16:13:47.242Z,19.58
2023-01-19T16:16:18.467Z,17.73
2023-01-19T16:18:48.312Z,21.83
2023-01-19T16:21:17.684Z,23.70
2023-01-19T16:23:48.479Z,23.15
2023-01-19T16:26:32.652Z,21.13
2023-01-19T16:29:03.199Z,17.60
2023-01-19T16:31:33.469Z,22.27
2023-01-19T16:36:34.598Z,16.30
2023-01-19T16:39:08.438Z,18.67
2023-01-19T16:41:38.309Z,19.27
2023-01-19T16:44:08.583Z,17.42
2023-01-19T16:49:12.689Z,24.83
2023-01-19T16:51:42.349Z,25.33
2023-01-19T16:54:15.191Z,25.27
2023-01-19T16:56:44.590Z,28.85
2023-01-19T16:59:15.857Z,21.27
2023-01-19T17:01:46.473Z,23.23
2023-01-19T17:04:17.268Z,28.42
2023-01-19T17:06:48.424Z,22.95
2023-01-19T17:09:19.741Z,43.03
2023-01-19T17:11:49.491Z,46.10
2023-01-19T17:14:21.872Z,41.60
2023-01-19T17:16:52.177Z,22.88
2023-01-19T17:21:54.005Z,27.00
2023-01-19T17:24:25.815Z,37.20
2023-01-19T17:26:55.244Z,40.45
2023-01-19T17:29:25.464Z,33.25
2023-01-19T17:31:57.323Z,26.75
2023-01-19T17:34:27.633Z,38.35
2023-01-19T17:39:34.735Z,42.20
2023-01-19T17:42:05.079Z,41.30
2023-01-19T17:47:06.387Z,35.03
2023-01-19T17:49:37.665Z,30.08
2023-01-19T17:52:07.453Z,62.42
2023-01-19T17:54:38.889Z,67.93
2023-01-19T17:57:09.013Z,66.85
2023-01-19T17:59:41.427Z,40.90
2023-01-19T18:02:11.946Z,47.45
2023-01-19T18:04:42.178Z,60.30
2023-01-19T18:07:11.964Z,36.97
2023-01-19T18:09:44.043Z,57.83
2023-01-19T18:12:13.658Z,42.38
2023-01-19T18:14:43.789Z,38.10
2023-01-19T18:17:14.064Z,33.92
2023-01-19T18:19:44.037Z,22.67
2023-01-19T18:22:13.703Z,28.25
2023-01-19T18:24:46.432Z,48.03
2023-01-19T18:27:16.864Z,34.33
2023-01-19T18:29:46.676Z,23.48
2023-01-19T18:32:16.369Z,25.15
2023-01-19T18:34:46.479Z,30.63
2023-01-19T18:37:16.095Z,29.13
2023-01-19T18:39:48.100Z,28.25
2023-01-19T18:42:20.330Z,24.60
2023-01-19T18:44:55.102Z,26.23
2023-01-19T18:49:54.882Z,24.57
2023-01-19T18:52:24.231Z,31.15
2023-01-19T18:54:55.524Z,41.42
2023-01-19T18:57:26.310Z,44.72
2023-01-19T18:59:55.994Z,52.15
2023-01-19T19:02:25.839Z,51.53
2023-01-19T19:04:56.250Z,66.55
2023-01-19T19:07:28.022Z,60.63
2023-01-19T19:09:59.695Z,71.43
2023-01-19T19:12:28.983Z,87.50
2023-01-19T19:14:59.120Z,81.25
2023-01-19T19:17:29.163Z,74.22
2023-01-19T19:19:58.860Z,65.15
2023-01-19T19:22:28.557Z,64.05
2023-01-19T19:24:59.662Z,72.63
2023-01-19T19:27:29.733Z,93.18
2023-01-19T19:29:59.626Z,70.43
2023-01-19T19:32:29.294Z,50.00
2023-01-19T19:34:59.312Z,69.68
2023-01-19T19:37:29.761Z,80.07
2023-01-19T19:40:01.370Z,73.53
2023-01-19T19:42:31.522Z,70.00
2023-01-19T19:45:01.241Z,34.40
2023-01-19T19:47:32.172Z,55.33
2023-01-19T19:50:02.516Z,91.38
2023-01-19T19:55:05.114Z,65.75
2023-01-19T19:57:34.961Z,63.33
2023-01-19T20:00:06.034Z,55.25
2023-01-19T20:02:44.913Z,51.75
2023-01-19T20:05:15.224Z,54.25
2023-01-19T20:10:21.107Z,51.80
2023-01-19T20:12:52.403Z,56.85
2023-01-19T20:15:22.024Z,87.50
2023-01-19T20:17:53.449Z,82.43
2023-01-19T20:20:25.335Z,94.35
2023-01-19T20:22:55.046Z,93.20
2023-01-19T20:25:26.596Z,71.10
2023-01-19T20:27:57.735Z,45.63
2023-01-19T20:30:28.878Z,47.40
2023-01-19T20:32:58.899Z,43.92
2023-01-19T20:35:30.993Z,67.03
2023-01-19T20:38:03.239Z,72.95
2023-01-19T20:40:37.228Z,65.32
2023-01-19T20:43:08.407Z,70.72
2023-01-19T20:45:38.268Z,70.28
2023-01-19T20:48:09.333Z,56.20
2023-01-19T20:50:39.505Z,58.30
2023-01-19T20:53:08.899Z,45.78
2023-01-19T20:55:39.812Z,43.50
2023-01-19T20:58:10.265Z,46.58
2023-01-19T21:03:13.983Z,23.05
2023-01-19T21:05:43.937Z,23.75
2023-01-19T21:08:14.460Z,30.80
2023-01-19T21:13:16.267Z,36.10
2023-01-19T21:18:15.764Z,37.03
2023-01-19T21:23:15.727Z,34.45
2023-01-19T21:25:51.764Z,67.53
2023-01-19T21:28:22.928Z,99.13
2023-01-19T21:30:55.521Z,274.52
2023-01-19T21:33:25.643Z,116.90
2023-01-19T21:35:56.963Z,59.60
2023-01-19T21:38:28.308Z,67.47
2023-01-19T21:41:00.730Z,64.40
2023-01-19T21:43:30.720Z,107.78
2023-01-19T21:46:10.451Z,120.07
2023-01-19T21:48:40.001Z,99.97
2023-01-19T21:51:09.744Z,86.93
2023-01-19T21:53:39.672Z,71.78
2023-01-19T21:56:12.685Z,80.90
2023-01-19T21:58:42.236Z,71.72
2023-01-19T22:01:13.962Z,72.75
2023-01-19T22:03:45.886Z,70.78
2023-01-19T22:06:16.763Z,69.15
2023-01-19T22:08:47.756Z,68.43
2023-01-19T22:11:20.930Z,67.90
2023-01-19T22:13:50.308Z,50.08
2023-01-19T22:16:22.355Z,51.92
2023-01-19T22:18:54.407Z,44.97
2023-01-19T22:21:25.479Z,46.72
2023-01-19T22:23:56.346Z,40.72
2023-01-19T22:26:28.023Z,25.05
2023-01-19T22:28:59.234Z,24.40
2023-01-19T22:31:30.690Z,30.00
2023-01-19T22:34:00.571Z,25.65
2023-01-19T22:36:32.092Z,31.10
2023-01-19T22:39:03.498Z,25.02
2023-01-19T22:41:35.889Z,23.77
2023-01-19T22:44:07.464Z,24.35
2023-01-19T22:46:37.839Z,23.75
2023-01-19T22:51:37.926Z,26.55
2023-01-19T22:54:08.554Z,23.27
2023-01-19T22:56:41.292Z,26.00
2023-01-19T22:59:11.085Z,18.60
2023-01-19T23:01:44.332Z,24.40
2023-01-19T23:04:15.782Z,21.98
2023-01-19T23:06:47.446Z,18.45
2023-01-19T23:09:16.932Z,21.42
2023-01-19T23:11:50.922Z,21.20
2023-01-19T23:14:22.179Z,24.08
2023-01-19T23:16:51.337Z,19.45
2023-01-19T23:19:20.709Z,15.20
2023-01-19T23:21:53.006Z,21.13
2023-01-19T23:24:22.257Z,21.27
2023-01-19T23:26:53.104Z,16.83
2023-01-19T23:29:23.664Z,18.20
2023-01-19T23:31:53.752Z,19.73
2023-01-19T23:34:23.103Z,17.10
2023-01-19T23:36:52.305Z,14.88
2023-01-19T23:39:23.764Z,22.50
2023-01-19T23:41:54.389Z,21.70
2023-01-19T23:44:23.513Z,22.65
2023-01-19T23:46:52.512Z,23.80
2023-01-19T23:49:21.930Z,19.92
2023-01-19T23:51:51.272Z,19.77
2023-01-19T23:54:20.384Z,17.63
2023-01-19T23:56:49.543Z,18.55
2023-01-19T23:59:20.259Z,19.75
